sensor_id;sensor_type;location;lat;lon;timestamp;P1;durP1;ratioP1;P2;durP2;ratioP2
75691;SDS011;64307;52.508;6.090;2023-03-03T00:02:02;28.88;;;11.20;;
75691;SDS011;64307;52.508;6.090;2023-03-03T00:04:28;25.92;;;10.77;;
75691;SDS011;64307;52.508;6.090;2023-03-03T00:06:53;29.27;;;13.00;;
75691;SDS011;64307;52.508;6.090;2023-03-03T00:09:18;25.77;;;10.63;;
75691;SDS011;64307;52.508;6.090;2023-03-03T00:11:44;26.05;;;12.23;;
75691;SDS011;64307;52.508;6.090;2023-03-03T00:14:27;26.13;;;11.05;;
75691;SDS011;64307;52.508;6.090;2023-03-03T00:16:54;27.75;;;11.50;;
75691;SDS011;64307;52.508;6.090;2023-03-03T00:19:22;27.83;;;10.82;;
75691;SDS011;64307;52.508;6.090;2023-03-03T00:21:48;28.30;;;11.70;;
75691;SDS011;64307;52.508;6.090;2023-03-03T00:24:22;27.48;;;11.60;;
75691;SDS011;64307;52.508;6.090;2023-03-03T00:26:55;29.25;;;12.73;;
75691;SDS011;64307;52.508;6.090;2023-03-03T00:29:28;28.88;;;10.43;;
75691;SDS011;64307;52.508;6.090;2023-03-03T00:34:47;25.67;;;11.25;;
75691;SDS011;64307;52.508;6.090;2023-03-03T00:37:34;27.48;;;11.82;;
75691;SDS011;64307;52.508;6.090;2023-03-03T00:42:52;31.80;;;14.10;;
75691;SDS011;64307;52.508;6.090;2023-03-03T00:47:51;22.85;;;10.13;;
75691;SDS011;64307;52.508;6.090;2023-03-03T00:50:20;26.33;;;11.48;;
75691;SDS011;64307;52.508;6.090;2023-03-03T00:53:01;24.70;;;11.18;;
75691;SDS011;64307;52.508;6.090;2023-03-03T00:55:28;24.55;;;8.95;;
75691;SDS011;64307;52.508;6.090;2023-03-03T00:57:54;24.30;;;8.23;;
75691;SDS011;64307;52.508;6.090;2023-03-03T01:00:20;24.58;;;9.60;;
75691;SDS011;64307;52.508;6.090;2023-03-03T01:02:45;21.98;;;8.68;;
75691;SDS011;64307;52.508;6.090;2023-03-03T01:05:12;26.75;;;11.95;;
75691;SDS011;64307;52.508;6.090;2023-03-03T01:07:40;23.40;;;9.00;;
75691;SDS011;64307;52.508;6.090;2023-03-03T01:10:05;26.67;;;10.13;;
75691;SDS011;64307;52.508;6.090;2023-03-03T01:12:31;24.52;;;11.73;;
75691;SDS011;64307;52.508;6.090;2023-03-03T01:14:56;23.92;;;9.98;;
75691;SDS011;64307;52.508;6.090;2023-03-03T01:17:22;24.58;;;11.07;;
75691;SDS011;64307;52.508;6.090;2023-03-03T01:19:47;23.50;;;9.50;;
75691;SDS011;64307;52.508;6.090;2023-03-03T01:22:12;23.52;;;10.93;;
75691;SDS011;64307;52.508;6.090;2023-03-03T01:24:38;23.63;;;10.60;;
75691;SDS011;64307;52.508;6.090;2023-03-03T01:27:03;24.38;;;10.13;;
75691;SDS011;64307;52.508;6.090;2023-03-03T01:29:28;22.07;;;8.90;;
75691;SDS011;64307;52.508;6.090;2023-03-03T01:31:54;23.13;;;9.85;;
75691;SDS011;64307;52.508;6.090;2023-03-03T01:34:19;23.88;;;10.63;;
75691;SDS011;64307;52.508;6.090;2023-03-03T01:36:47;24.00;;;9.65;;
75691;SDS011;64307;52.508;6.090;2023-03-03T01:39:12;20.75;;;9.13;;
75691;SDS011;64307;52.508;6.090;2023-03-03T01:41:38;20.33;;;8.52;;
75691;SDS011;64307;52.508;6.090;2023-03-03T01:44:03;26.40;;;10.93;;
75691;SDS011;64307;52.508;6.090;2023-03-03T01:46:33;22.08;;;9.65;;
75691;SDS011;64307;52.508;6.090;2023-03-03T01:49:00;22.65;;;10.60;;
75691;SDS011;64307;52.508;6.090;2023-03-03T01:51:37;24.48;;;9.98;;
75691;SDS011;64307;52.508;6.090;2023-03-03T01:54:13;24.10;;;10.77;;
75691;SDS011;64307;52.508;6.090;2023-03-03T01:56:45;25.70;;;10.73;;
75691;SDS011;64307;52.508;6.090;2023-03-03T01:59:16;26.95;;;10.75;;
75691;SDS011;64307;52.508;6.090;2023-03-03T02:01:45;23.38;;;10.23;;
75691;SDS011;64307;52.508;6.090;2023-03-03T02:04:12;26.52;;;10.77;;
75691;SDS011;64307;52.508;6.090;2023-03-03T02:06:39;27.25;;;11.88;;
75691;SDS011;64307;52.508;6.090;2023-03-03T02:09:21;23.92;;;9.55;;
75691;SDS011;64307;52.508;6.090;2023-03-03T02:11:54;24.70;;;8.90;;
75691;SDS011;64307;52.508;6.090;2023-03-03T02:14:23;23.02;;;8.68;;
75691;SDS011;64307;52.508;6.090;2023-03-03T02:16:49;21.98;;;8.60;;
75691;SDS011;64307;52.508;6.090;2023-03-03T02:19:21;22.35;;;9.65;;
75691;SDS011;64307;52.508;6.090;2023-03-03T02:21:56;18.13;;;7.03;;
75691;SDS011;64307;52.508;6.090;2023-03-03T02:24:24;19.50;;;7.85;;
75691;SDS011;64307;52.508;6.090;2023-03-03T02:26:57;19.15;;;9.07;;
75691;SDS011;64307;52.508;6.090;2023-03-03T02:29:23;25.10;;;8.82;;
75691;SDS011;64307;52.508;6.090;2023-03-03T02:31:48;22.10;;;8.70;;
75691;SDS011;64307;52.508;6.090;2023-03-03T02:34:15;20.40;;;8.15;;
75691;SDS011;64307;52.508;6.090;2023-03-03T02:36:40;19.23;;;6.80;;
75691;SDS011;64307;52.508;6.090;2023-03-03T02:39:11;20.95;;;7.68;;
75691;SDS011;64307;52.508;6.090;2023-03-03T02:41:44;20.38;;;7.78;;
75691;SDS011;64307;52.508;6.090;2023-03-03T02:44:17;22.38;;;8.75;;
75691;SDS011;64307;52.508;6.090;2023-03-03T02:46:46;22.50;;;9.07;;
75691;SDS011;64307;52.508;6.090;2023-03-03T02:49:14;23.55;;;7.90;;
75691;SDS011;64307;52.508;6.090;2023-03-03T02:51:41;20.42;;;9.30;;
75691;SDS011;64307;52.508;6.090;2023-03-03T02:54:07;21.35;;;9.25;;
75691;SDS011;64307;52.508;6.090;2023-03-03T02:56:34;19.35;;;7.68;;
75691;SDS011;64307;52.508;6.090;2023-03-03T02:59:00;20.52;;;7.53;;
75691;SDS011;64307;52.508;6.090;2023-03-03T03:01:25;25.67;;;8.65;;
75691;SDS011;64307;52.508;6.090;2023-03-03T03:03:50;19.45;;;7.38;;
75691;SDS011;64307;52.508;6.090;2023-03-03T03:06:16;19.60;;;7.22;;
75691;SDS011;64307;52.508;6.090;2023-03-03T03:08:42;21.70;;;6.75;;
75691;SDS011;64307;52.508;6.090;2023-03-03T03:11:08;20.10;;;7.35;;
75691;SDS011;64307;52.508;6.090;2023-03-03T03:13:33;20.05;;;7.10;;
75691;SDS011;64307;52.508;6.090;2023-03-03T03:16:00;22.55;;;7.60;;
75691;SDS011;64307;52.508;6.090;2023-03-03T03:18:27;20.85;;;7.25;;
75691;SDS011;64307;52.508;6.090;2023-03-03T03:20:53;22.30;;;8.00;;
75691;SDS011;64307;52.508;6.090;2023-03-03T03:25:46;20.85;;;8.15;;
75691;SDS011;64307;52.508;6.090;2023-03-03T03:28:13;25.67;;;9.65;;
75691;SDS011;64307;52.508;6.090;2023-03-03T03:30:39;27.30;;;8.07;;
75691;SDS011;64307;52.508;6.090;2023-03-03T03:33:05;20.35;;;7.78;;
75691;SDS011;64307;52.508;6.090;2023-03-03T03:35:35;20.17;;;7.47;;
75691;SDS011;64307;52.508;6.090;2023-03-03T03:38:02;24.52;;;8.73;;
75691;SDS011;64307;52.508;6.090;2023-03-03T03:40:28;24.75;;;8.05;;
75691;SDS011;64307;52.508;6.090;2023-03-03T03:42:54;23.98;;;8.45;;
75691;SDS011;64307;52.508;6.090;2023-03-03T03:45:19;24.58;;;9.35;;
75691;SDS011;64307;52.508;6.090;2023-03-03T03:47:45;25.42;;;9.50;;
75691;SDS011;64307;52.508;6.090;2023-03-03T03:50:11;27.48;;;9.13;;
75691;SDS011;64307;52.508;6.090;2023-03-03T03:52:37;23.80;;;9.02;;
75691;SDS011;64307;52.508;6.090;2023-03-03T03:55:02;25.80;;;9.75;;
75691;SDS011;64307;52.508;6.090;2023-03-03T03:57:28;25.00;;;10.00;;
75691;SDS011;64307;52.508;6.090;2023-03-03T03:59:54;28.00;;;9.70;;
75691;SDS011;64307;52.508;6.090;2023-03-03T04:02:19;25.58;;;9.20;;
75691;SDS011;64307;52.508;6.090;2023-03-03T04:04:45;26.98;;;9.38;;
75691;SDS011;64307;52.508;6.090;2023-03-03T04:07:10;38.30;;;9.55;;
75691;SDS011;64307;52.508;6.090;2023-03-03T04:09:37;33.38;;;11.70;;
75691;SDS011;64307;52.508;6.090;2023-03-03T04:12:02;33.70;;;12.65;;
75691;SDS011;64307;52.508;6.090;2023-03-03T04:14:27;30.10;;;11.35;;
75691;SDS011;64307;52.508;6.090;2023-03-03T04:16:53;34.92;;;9.82;;
75691;SDS011;64307;52.508;6.090;2023-03-03T04:19:18;31.17;;;9.48;;
75691;SDS011;64307;52.508;6.090;2023-03-03T04:21:43;30.08;;;10.45;;
75691;SDS011;64307;52.508;6.090;2023-03-03T04:24:09;34.65;;;9.75;;
75691;SDS011;64307;52.508;6.090;2023-03-03T04:26:34;27.95;;;9.40;;
75691;SDS011;64307;52.508;6.090;2023-03-03T04:29:00;28.73;;;9.32;;
75691;SDS011;64307;52.508;6.090;2023-03-03T04:31:25;28.38;;;8.95;;
75691;SDS011;64307;52.508;6.090;2023-03-03T04:33:51;33.17;;;10.00;;
75691;SDS011;64307;52.508;6.090;2023-03-03T04:36:17;29.73;;;9.13;;
75691;SDS011;64307;52.508;6.090;2023-03-03T04:38:43;32.28;;;10.45;;
75691;SDS011;64307;52.508;6.090;2023-03-03T04:41:08;28.05;;;9.75;;
75691;SDS011;64307;52.508;6.090;2023-03-03T04:43:34;29.95;;;8.80;;
75691;SDS011;64307;52.508;6.090;2023-03-03T04:46:00;32.63;;;9.32;;
75691;SDS011;64307;52.508;6.090;2023-03-03T04:48:25;26.73;;;7.63;;
75691;SDS011;64307;52.508;6.090;2023-03-03T04:50:51;30.50;;;8.60;;
75691;SDS011;64307;52.508;6.090;2023-03-03T04:53:16;29.83;;;8.88;;
75691;SDS011;64307;52.508;6.090;2023-03-03T04:55:41;37.78;;;11.27;;
75691;SDS011;64307;52.508;6.090;2023-03-03T04:58:07;32.67;;;8.90;;
75691;SDS011;64307;52.508;6.090;2023-03-03T05:00:34;27.92;;;9.00;;
75691;SDS011;64307;52.508;6.090;2023-03-03T05:02:59;27.42;;;8.63;;
75691;SDS011;64307;52.508;6.090;2023-03-03T05:05:25;24.65;;;7.97;;
75691;SDS011;64307;52.508;6.090;2023-03-03T05:07:50;30.15;;;9.63;;
75691;SDS011;64307;52.508;6.090;2023-03-03T05:10:16;26.50;;;7.28;;
75691;SDS011;64307;52.508;6.090;2023-03-03T05:12:42;24.80;;;10.15;;
75691;SDS011;64307;52.508;6.090;2023-03-03T05:15:08;27.20;;;10.02;;
75691;SDS011;64307;52.508;6.090;2023-03-03T05:17:34;36.30;;;9.30;;
75691;SDS011;64307;52.508;6.090;2023-03-03T05:19:59;30.08;;;8.27;;
75691;SDS011;64307;52.508;6.090;2023-03-03T05:22:24;24.15;;;8.18;;
75691;SDS011;64307;52.508;6.090;2023-03-03T05:24:50;27.67;;;9.30;;
75691;SDS011;64307;52.508;6.090;2023-03-03T05:27:16;30.30;;;8.48;;
75691;SDS011;64307;52.508;6.090;2023-03-03T05:29:41;27.65;;;10.40;;
75691;SDS011;64307;52.508;6.090;2023-03-03T05:32:07;27.08;;;8.45;;
75691;SDS011;64307;52.508;6.090;2023-03-03T05:34:32;26.83;;;9.65;;
75691;SDS011;64307;52.508;6.090;2023-03-03T05:36:58;22.63;;;7.97;;
75691;SDS011;64307;52.508;6.090;2023-03-03T05:39:23;22.70;;;7.63;;
75691;SDS011;64307;52.508;6.090;2023-03-03T05:41:48;23.70;;;7.35;;
75691;SDS011;64307;52.508;6.090;2023-03-03T05:44:14;33.25;;;8.80;;
75691;SDS011;64307;52.508;6.090;2023-03-03T05:46:39;25.13;;;7.47;;
75691;SDS011;64307;52.508;6.090;2023-03-03T05:49:06;22.40;;;6.72;;
75691;SDS011;64307;52.508;6.090;2023-03-03T05:51:31;38.83;;;9.55;;
75691;SDS011;64307;52.508;6.090;2023-03-03T05:53:57;24.80;;;7.35;;
75691;SDS011;64307;52.508;6.090;2023-03-03T05:56:22;30.52;;;7.13;;
75691;SDS011;64307;52.508;6.090;2023-03-03T05:58:47;28.55;;;8.18;;
75691;SDS011;64307;52.508;6.090;2023-03-03T06:01:13;24.65;;;7.97;;
75691;SDS011;64307;52.508;6.090;2023-03-03T06:03:38;22.38;;;7.75;;
75691;SDS011;64307;52.508;6.090;2023-03-03T06:06:04;28.13;;;7.75;;
75691;SDS011;64307;52.508;6.090;2023-03-03T06:08:29;31.15;;;9.82;;
75691;SDS011;64307;52.508;6.090;2023-03-03T06:10:56;22.95;;;8.57;;
75691;SDS011;64307;52.508;6.090;2023-03-03T06:13:21;22.42;;;8.23;;
75691;SDS011;64307;52.508;6.090;2023-03-03T06:15:47;24.95;;;7.65;;
75691;SDS011;64307;52.508;6.090;2023-03-03T06:18:12;32.45;;;9.15;;
75691;SDS011;64307;52.508;6.090;2023-03-03T06:20:37;25.13;;;8.30;;
75691;SDS011;64307;52.508;6.090;2023-03-03T06:23:03;20.85;;;7.70;;
75691;SDS011;64307;52.508;6.090;2023-03-03T06:25:28;29.77;;;8.35;;
75691;SDS011;64307;52.508;6.090;2023-03-03T06:27:54;25.13;;;8.40;;
75691;SDS011;64307;52.508;6.090;2023-03-03T06:30:19;21.55;;;6.22;;
75691;SDS011;64307;52.508;6.090;2023-03-03T06:32:44;20.80;;;7.53;;
75691;SDS011;64307;52.508;6.090;2023-03-03T06:35:10;21.20;;;7.03;;
75691;SDS011;64307;52.508;6.090;2023-03-03T06:37:35;16.25;;;5.82;;
75691;SDS011;64307;52.508;6.090;2023-03-03T06:40:01;22.48;;;6.95;;
75691;SDS011;64307;52.508;6.090;2023-03-03T06:42:28;19.80;;;7.68;;
75691;SDS011;64307;52.508;6.090;2023-03-03T06:44:54;23.63;;;6.78;;
75691;SDS011;64307;52.508;6.090;2023-03-03T06:47:19;24.10;;;8.93;;
75691;SDS011;64307;52.508;6.090;2023-03-03T06:49:44;26.37;;;8.87;;
75691;SDS011;64307;52.508;6.090;2023-03-03T06:52:16;21.83;;;6.97;;
75691;SDS011;64307;52.508;6.090;2023-03-03T06:54:44;23.85;;;6.93;;
75691;SDS011;64307;52.508;6.090;2023-03-03T06:57:19;21.05;;;6.97;;
75691;SDS011;64307;52.508;6.090;2023-03-03T06:59:58;22.77;;;7.10;;
75691;SDS011;64307;52.508;6.090;2023-03-03T07:02:36;22.17;;;7.97;;
75691;SDS011;64307;52.508;6.090;2023-03-03T07:05:05;30.90;;;8.02;;
75691;SDS011;64307;52.508;6.090;2023-03-03T07:07:35;20.48;;;7.70;;
75691;SDS011;64307;52.508;6.090;2023-03-03T07:10:00;26.77;;;7.15;;
75691;SDS011;64307;52.508;6.090;2023-03-03T07:12:30;20.20;;;5.38;;
75691;SDS011;64307;52.508;6.090;2023-03-03T07:17:41;23.42;;;7.72;;
75691;SDS011;64307;52.508;6.090;2023-03-03T07:20:20;18.25;;;5.45;;
75691;SDS011;64307;52.508;6.090;2023-03-03T07:22:47;21.35;;;7.45;;
75691;SDS011;64307;52.508;6.090;2023-03-03T07:25:19;24.15;;;6.10;;
75691;SDS011;64307;52.508;6.090;2023-03-03T07:27:50;16.60;;;5.72;;
75691;SDS011;64307;52.508;6.090;2023-03-03T07:30:24;20.23;;;6.68;;
75691;SDS011;64307;52.508;6.090;2023-03-03T07:32:52;20.85;;;7.13;;
75691;SDS011;64307;52.508;6.090;2023-03-03T07:35:34;21.67;;;7.68;;
75691;SDS011;64307;52.508;6.090;2023-03-03T07:38:10;22.55;;;6.55;;
75691;SDS011;64307;52.508;6.090;2023-03-03T07:40:49;21.70;;;7.25;;
75691;SDS011;64307;52.508;6.090;2023-03-03T07:48:35;22.63;;;8.48;;
75691;SDS011;64307;52.508;6.090;2023-03-03T07:51:05;25.27;;;7.22;;
75691;SDS011;64307;52.508;6.090;2023-03-03T07:53:51;24.10;;;7.47;;
75691;SDS011;64307;52.508;6.090;2023-03-03T07:56:26;21.98;;;6.82;;
75691;SDS011;64307;52.508;6.090;2023-03-03T07:58:53;26.10;;;8.52;;
75691;SDS011;64307;52.508;6.090;2023-03-03T08:04:17;23.88;;;8.65;;
75691;SDS011;64307;52.508;6.090;2023-03-03T08:11:48;17.70;;;6.77;;
75691;SDS011;64307;52.508;6.090;2023-03-03T08:14:19;17.20;;;6.22;;
75691;SDS011;64307;52.508;6.090;2023-03-03T08:16:50;15.50;;;6.07;;
75691;SDS011;64307;52.508;6.090;2023-03-03T08:19:16;14.40;;;5.60;;
75691;SDS011;64307;52.508;6.090;2023-03-03T08:21:42;18.50;;;7.43;;
75691;SDS011;64307;52.508;6.090;2023-03-03T08:24:09;14.90;;;5.75;;
75691;SDS011;64307;52.508;6.090;2023-03-03T08:26:35;13.50;;;4.85;;
75691;SDS011;64307;52.508;6.090;2023-03-03T08:29:01;17.00;;;6.55;;
75691;SDS011;64307;52.508;6.090;2023-03-03T08:31:26;16.65;;;6.07;;
75691;SDS011;64307;52.508;6.090;2023-03-03T08:33:52;16.42;;;7.43;;
75691;SDS011;64307;52.508;6.090;2023-03-03T08:36:18;13.15;;;6.28;;
75691;SDS011;64307;52.508;6.090;2023-03-03T08:38:43;16.05;;;5.70;;
75691;SDS011;64307;52.508;6.090;2023-03-03T08:41:09;16.80;;;6.07;;
75691;SDS011;64307;52.508;6.090;2023-03-03T08:43:34;13.80;;;6.05;;
75691;SDS011;64307;52.508;6.090;2023-03-03T08:46:00;14.75;;;5.63;;
75691;SDS011;64307;52.508;6.090;2023-03-03T08:48:27;14.05;;;5.40;;
75691;SDS011;64307;52.508;6.090;2023-03-03T08:50:53;13.55;;;5.28;;
75691;SDS011;64307;52.508;6.090;2023-03-03T08:53:19;13.98;;;5.18;;
75691;SDS011;64307;52.508;6.090;2023-03-03T08:55:46;13.95;;;5.10;;
75691;SDS011;64307;52.508;6.090;2023-03-03T08:58:12;10.73;;;4.65;;
75691;SDS011;64307;52.508;6.090;2023-03-03T09:00:38;14.00;;;5.97;;
75691;SDS011;64307;52.508;6.090;2023-03-03T09:03:03;12.85;;;5.55;;
75691;SDS011;64307;52.508;6.090;2023-03-03T09:05:32;11.73;;;4.70;;
75691;SDS011;64307;52.508;6.090;2023-03-03T09:07:59;11.75;;;6.28;;
75691;SDS011;64307;52.508;6.090;2023-03-03T09:12:56;8.88;;;4.38;;
75691;SDS011;64307;52.508;6.090;2023-03-03T09:17:48;11.03;;;6.83;;
75691;SDS011;64307;52.508;6.090;2023-03-03T09:22:56;13.23;;;5.50;;
75691;SDS011;64307;52.508;6.090;2023-03-03T09:25:26;12.00;;;5.88;;
75691;SDS011;64307;52.508;6.090;2023-03-03T09:27:57;12.90;;;5.47;;
75691;SDS011;64307;52.508;6.090;2023-03-03T09:32:54;12.27;;;5.40;;
75691;SDS011;64307;52.508;6.090;2023-03-03T09:38:27;11.65;;;5.25;;
75691;SDS011;64307;52.508;6.090;2023-03-03T09:41:08;9.75;;;4.93;;
75691;SDS011;64307;52.508;6.090;2023-03-03T09:43:47;13.23;;;5.00;;
75691;SDS011;64307;52.508;6.090;2023-03-03T09:46:37;10.15;;;4.50;;
75691;SDS011;64307;52.508;6.090;2023-03-03T09:52:17;13.15;;;5.22;;
75691;SDS011;64307;52.508;6.090;2023-03-03T09:55:10;12.70;;;4.70;;
75691;SDS011;64307;52.508;6.090;2023-03-03T09:58:04;13.93;;;5.00;;
75691;SDS011;64307;52.508;6.090;2023-03-03T10:06:10;10.25;;;5.18;;
75691;SDS011;64307;52.508;6.090;2023-03-03T10:19:19;9.80;;;4.97;;
75691;SDS011;64307;52.508;6.090;2023-03-03T10:21:50;8.98;;;3.70;;
75691;SDS011;64307;52.508;6.090;2023-03-03T10:43:24;7.78;;;2.92;;
75691;SDS011;64307;52.508;6.090;2023-03-03T10:46:18;10.65;;;3.58;;
75691;SDS011;64307;52.508;6.090;2023-03-03T10:54:48;6.10;;;2.47;;
75691;SDS011;64307;52.508;6.090;2023-03-03T10:57:25;8.50;;;4.15;;
75691;SDS011;64307;52.508;6.090;2023-03-03T11:00:03;6.75;;;3.60;;
75691;SDS011;64307;52.508;6.090;2023-03-03T11:02:36;6.28;;;2.78;;
75691;SDS011;64307;52.508;6.090;2023-03-03T11:07:55;6.35;;;3.13;;
75691;SDS011;64307;52.508;6.090;2023-03-03T11:13:25;5.18;;;1.70;;
75691;SDS011;64307;52.508;6.090;2023-03-03T11:34:54;4.93;;;2.50;;
75691;SDS011;64307;52.508;6.090;2023-03-03T11:37:41;4.22;;;1.15;;
75691;SDS011;64307;52.508;6.090;2023-03-03T11:40:18;6.28;;;2.70;;
75691;SDS011;64307;52.508;6.090;2023-03-03T11:45:39;4.18;;;1.40;;
75691;SDS011;64307;52.508;6.090;2023-03-03T11:51:07;7.68;;;2.35;;
75691;SDS011;64307;52.508;6.090;2023-03-03T11:53:56;4.32;;;1.90;;
75691;SDS011;64307;52.508;6.090;2023-03-03T11:56:29;4.38;;;1.20;;
75691;SDS011;64307;52.508;6.090;2023-03-03T11:59:26;6.35;;;2.08;;
75691;SDS011;64307;52.508;6.090;2023-03-03T12:07:46;4.43;;;2.03;;
75691;SDS011;64307;52.508;6.090;2023-03-03T12:12:53;3.63;;;1.80;;
75691;SDS011;64307;52.508;6.090;2023-03-03T12:15:38;4.00;;;2.20;;
75691;SDS011;64307;52.508;6.090;2023-03-03T12:32:31;4.18;;;1.60;;
75691;SDS011;64307;52.508;6.090;2023-03-03T12:38:16;5.72;;;1.52;;
75691;SDS011;64307;52.508;6.090;2023-03-03T12:44:32;4.97;;;2.05;;
75691;SDS011;64307;52.508;6.090;2023-03-03T12:47:15;5.65;;;2.40;;
75691;SDS011;64307;52.508;6.090;2023-03-03T12:54:59;4.95;;;1.30;;
75691;SDS011;64307;52.508;6.090;2023-03-03T12:57:42;5.55;;;1.80;;
75691;SDS011;64307;52.508;6.090;2023-03-03T13:05:56;5.43;;;1.65;;
75691;SDS011;64307;52.508;6.090;2023-03-03T13:11:34;5.07;;;1.65;;
75691;SDS011;64307;52.508;6.090;2023-03-03T13:19:40;6.32;;;3.15;;
75691;SDS011;64307;52.508;6.090;2023-03-03T13:22:45;6.18;;;2.65;;
75691;SDS011;64307;52.508;6.090;2023-03-03T13:28:52;2.47;;;1.13;;
75691;SDS011;64307;52.508;6.090;2023-03-03T13:31:00;5.25;;;2.10;;
75691;SDS011;64307;52.508;6.090;2023-03-03T13:33:30;3.92;;;1.30;;
75691;SDS011;64307;52.508;6.090;2023-03-03T13:36:06;4.18;;;1.08;;
75691;SDS011;64307;52.508;6.090;2023-03-03T13:38:56;4.13;;;1.30;;
75691;SDS011;64307;52.508;6.090;2023-03-03T13:44:35;5.10;;;1.40;;
75691;SDS011;64307;52.508;6.090;2023-03-03T13:49:54;5.85;;;1.85;;
75691;SDS011;64307;52.508;6.090;2023-03-03T13:52:28;5.85;;;1.38;;
75691;SDS011;64307;52.508;6.090;2023-03-03T14:03:06;2.60;;;1.38;;
75691;SDS011;64307;52.508;6.090;2023-03-03T14:05:49;2.22;;;0.82;;
75691;SDS011;64307;52.508;6.090;2023-03-03T14:11:22;5.18;;;2.15;;
75691;SDS011;64307;52.508;6.090;2023-03-03T14:16:58;4.35;;;2.58;;
75691;SDS011;64307;52.508;6.090;2023-03-03T14:19:43;5.47;;;1.40;;
75691;SDS011;64307;52.508;6.090;2023-03-03T14:22:19;5.70;;;2.40;;
75691;SDS011;64307;52.508;6.090;2023-03-03T14:24:59;3.85;;;1.15;;
75691;SDS011;64307;52.508;6.090;2023-03-03T14:27:35;4.45;;;1.08;;
75691;SDS011;64307;52.508;6.090;2023-03-03T14:35:29;3.22;;;1.85;;
75691;SDS011;64307;52.508;6.090;2023-03-03T14:38:14;4.13;;;0.85;;
75691;SDS011;64307;52.508;6.090;2023-03-03T14:40:44;2.90;;;1.88;;
75691;SDS011;64307;52.508;6.090;2023-03-03T14:43:32;4.47;;;0.98;;
75691;SDS011;64307;52.508;6.090;2023-03-03T14:48:50;5.47;;;1.38;;
75691;SDS011;64307;52.508;6.090;2023-03-03T14:51:24;2.88;;;1.00;;
75691;SDS011;64307;52.508;6.090;2023-03-03T14:54:07;3.80;;;0.75;;
75691;SDS011;64307;52.508;6.090;2023-03-03T14:56:39;3.05;;;0.77;;
75691;SDS011;64307;52.508;6.090;2023-03-03T14:59:31;2.90;;;0.60;;
75691;SDS011;64307;52.508;6.090;2023-03-03T15:04:23;3.60;;;0.97;;
75691;SDS011;64307;52.508;6.090;2023-03-03T15:06:52;4.65;;;1.40;;
75691;SDS011;64307;52.508;6.090;2023-03-03T15:09:38;6.50;;;1.63;;
75691;SDS011;64307;52.508;6.090;2023-03-03T15:14:46;3.75;;;1.63;;
75691;SDS011;64307;52.508;6.090;2023-03-03T15:17:24;3.45;;;0.65;;
75691;SDS011;64307;52.508;6.090;2023-03-03T15:25:46;3.58;;;0.75;;
75691;SDS011;64307;52.508;6.090;2023-03-03T15:33:28;4.88;;;0.75;;
75691;SDS011;64307;52.508;6.090;2023-03-03T15:36:59;4.25;;;0.88;;
75691;SDS011;64307;52.508;6.090;2023-03-03T15:42:03;3.17;;;0.60;;
75691;SDS011;64307;52.508;6.090;2023-03-03T15:47:26;2.75;;;1.55;;
75691;SDS011;64307;52.508;6.090;2023-03-03T15:50:03;3.75;;;0.40;;
75691;SDS011;64307;52.508;6.090;2023-03-03T15:58:45;4.60;;;1.45;;
75691;SDS011;64307;52.508;6.090;2023-03-03T16:04:38;4.80;;;1.20;;
75691;SDS011;64307;52.508;6.090;2023-03-03T16:09:54;3.65;;;1.83;;
75691;SDS011;64307;52.508;6.090;2023-03-03T16:18:02;5.35;;;0.82;;
75691;SDS011;64307;52.508;6.090;2023-03-03T16:23:35;4.82;;;0.90;;
75691;SDS011;64307;52.508;6.090;2023-03-03T16:28:55;7.18;;;0.93;;
75691;SDS011;64307;52.508;6.090;2023-03-03T16:31:34;4.32;;;0.98;;
75691;SDS011;64307;52.508;6.090;2023-03-03T16:34:24;7.47;;;1.67;;
75691;SDS011;64307;52.508;6.090;2023-03-03T16:37:06;6.78;;;0.95;;
75691;SDS011;64307;52.508;6.090;2023-03-03T16:39:53;5.82;;;0.90;;
75691;SDS011;64307;52.508;6.090;2023-03-03T16:42:26;8.55;;;2.30;;
75691;SDS011;64307;52.508;6.090;2023-03-03T16:53:14;8.05;;;2.35;;
75691;SDS011;64307;52.508;6.090;2023-03-03T16:58:38;8.13;;;2.28;;
75691;SDS011;64307;52.508;6.090;2023-03-03T17:03:57;22.17;;;2.03;;
75691;SDS011;64307;52.508;6.090;2023-03-03T17:06:35;11.68;;;2.17;;
75691;SDS011;64307;52.508;6.090;2023-03-03T17:09:30;6.13;;;1.10;;
75691;SDS011;64307;52.508;6.090;2023-03-03T17:12:13;11.18;;;2.42;;
75691;SDS011;64307;52.508;6.090;2023-03-03T17:17:43;12.27;;;1.95;;
75691;SDS011;64307;52.508;6.090;2023-03-03T17:26:12;12.48;;;2.40;;
75691;SDS011;64307;52.508;6.090;2023-03-03T17:28:59;11.40;;;2.55;;
75691;SDS011;64307;52.508;6.090;2023-03-03T17:37:20;13.07;;;3.33;;
75691;SDS011;64307;52.508;6.090;2023-03-03T17:43:19;13.57;;;2.40;;
75691;SDS011;64307;52.508;6.090;2023-03-03T17:45:50;10.15;;;1.77;;
75691;SDS011;64307;52.508;6.090;2023-03-03T17:48:30;14.60;;;1.75;;
75691;SDS011;64307;52.508;6.090;2023-03-03T17:51:20;11.02;;;1.42;;
75691;SDS011;64307;52.508;6.090;2023-03-03T17:54:06;14.02;;;2.00;;
75691;SDS011;64307;52.508;6.090;2023-03-03T17:59:50;13.75;;;2.38;;
75691;SDS011;64307;52.508;6.090;2023-03-03T18:05:06;12.48;;;1.60;;
75691;SDS011;64307;52.508;6.090;2023-03-03T18:13:33;9.18;;;2.65;;
75691;SDS011;64307;52.508;6.090;2023-03-03T18:19:06;13.68;;;1.73;;
75691;SDS011;64307;52.508;6.090;2023-03-03T18:24:38;16.02;;;1.70;;
75691;SDS011;64307;52.508;6.090;2023-03-03T18:37:57;14.88;;;2.67;;
75691;SDS011;64307;52.508;6.090;2023-03-03T18:40:49;16.85;;;2.28;;
75691;SDS011;64307;52.508;6.090;2023-03-03T18:49:07;15.00;;;3.00;;
75691;SDS011;64307;52.508;6.090;2023-03-03T18:56:41;17.25;;;2.15;;
75691;SDS011;64307;52.508;6.090;2023-03-03T18:59:09;13.20;;;1.85;;
75691;SDS011;64307;52.508;6.090;2023-03-03T19:01:39;8.98;;;1.58;;
75691;SDS011;64307;52.508;6.090;2023-03-03T19:09:03;13.77;;;3.07;;
75691;SDS011;64307;52.508;6.090;2023-03-03T19:11:51;21.45;;;3.30;;
75691;SDS011;64307;52.508;6.090;2023-03-03T19:14:19;14.90;;;2.67;;
75691;SDS011;64307;52.508;6.090;2023-03-03T19:16:55;12.95;;;2.80;;
75691;SDS011;64307;52.508;6.090;2023-03-03T19:19:23;13.77;;;4.97;;
75691;SDS011;64307;52.508;6.090;2023-03-03T19:30:35;8.07;;;3.28;;
75691;SDS011;64307;52.508;6.090;2023-03-03T19:36:17;14.60;;;2.63;;
75691;SDS011;64307;52.508;6.090;2023-03-03T19:42:11;14.95;;;2.35;;
75691;SDS011;64307;52.508;6.090;2023-03-03T19:47:50;13.68;;;3.53;;
75691;SDS011;64307;52.508;6.090;2023-03-03T19:53:26;12.90;;;3.13;;
75691;SDS011;64307;52.508;6.090;2023-03-03T20:07:52;12.13;;;3.38;;
75691;SDS011;64307;52.508;6.090;2023-03-03T20:10:46;16.50;;;2.17;;
75691;SDS011;64307;52.508;6.090;2023-03-03T20:13:46;16.15;;;2.05;;
75691;SDS011;64307;52.508;6.090;2023-03-03T20:16:23;16.27;;;2.80;;
75691;SDS011;64307;52.508;6.090;2023-03-03T20:22:09;17.08;;;2.83;;
75691;SDS011;64307;52.508;6.090;2023-03-03T20:24:57;19.35;;;2.65;;
75691;SDS011;64307;52.508;6.090;2023-03-03T20:27:39;14.85;;;2.92;;
75691;SDS011;64307;52.508;6.090;2023-03-03T20:30:26;18.98;;;2.78;;
75691;SDS011;64307;52.508;6.090;2023-03-03T20:39:02;15.27;;;2.90;;
75691;SDS011;64307;52.508;6.090;2023-03-03T20:41:32;14.45;;;1.80;;
75691;SDS011;64307;52.508;6.090;2023-03-03T20:58:03;14.82;;;3.45;;
75691;SDS011;64307;52.508;6.090;2023-03-03T21:01:00;19.45;;;3.20;;
75691;SDS011;64307;52.508;6.090;2023-03-03T21:03:38;15.30;;;2.33;;
75691;SDS011;64307;52.508;6.090;2023-03-03T21:06:07;24.92;;;2.63;;
75691;SDS011;64307;52.508;6.090;2023-03-03T21:08:44;13.98;;;2.33;;
75691;SDS011;64307;52.508;6.090;2023-03-03T21:13:39;14.45;;;3.58;;
75691;SDS011;64307;52.508;6.090;2023-03-03T21:19:06;13.88;;;3.03;;